createdAt,value
2017-05-18T00:01:55.920Z,17.00
2017-05-18T00:04:24.149Z,17.10
2017-05-18T00:06:52.389Z,17.10
2017-05-18T00:09:21.401Z,17.00
2017-05-18T00:11:49.677Z,17.10
2017-05-18T00:14:17.912Z,17.10
2017-05-18T00:16:46.899Z,17.00
2017-05-18T00:19:15.124Z,17.00
2017-05-18T00:21:43.371Z,17.00
2017-05-18T00:24:12.368Z,17.00
2017-05-18T00:26:41.359Z,17.00
2017-05-18T00:29:10.339Z,17.00
2017-05-18T00:31:38.648Z,17.00
2017-05-18T00:34:06.884Z,17.00
2017-05-18T00:36:35.200Z,17.00
2017-05-18T00:39:03.451Z,17.00
2017-05-18T00:41:31.689Z,17.00
2017-05-18T00:43:59.932Z,17.00
2017-05-18T00:46:28.196Z,17.00
2017-05-18T00:48:57.290Z,17.00
2017-05-18T00:51:26.293Z,17.00
2017-05-18T00:53:54.568Z,17.00
2017-05-18T00:56:22.796Z,17.00
2017-05-18T00:58:51.111Z,17.00
2017-05-18T01:01:20.120Z,17.00
2017-05-18T01:03:48.411Z,17.00
2017-05-18T01:06:16.644Z,17.00
2017-05-18T01:08:44.903Z,17.00
2017-05-18T01:11:13.254Z,17.00
2017-05-18T01:13:41.584Z,17.00
2017-05-18T01:16:10.595Z,17.00
2017-05-18T01:18:38.896Z,17.00
2017-05-18T01:21:07.243Z,17.00
2017-05-18T01:23:35.475Z,17.00
2017-05-18T01:26:03.811Z,17.00
2017-05-18T01:28:32.044Z,17.00
2017-05-18T01:31:00.344Z,17.00
2017-05-18T01:33:29.346Z,16.90
2017-05-18T01:35:57.593Z,17.00
2017-05-18T01:38:25.836Z,16.90
2017-05-18T01:40:54.114Z,16.90
2017-05-18T01:43:22.365Z,16.90
2017-05-18T01:45:50.720Z,16.90
2017-05-18T01:48:19.859Z,16.90
2017-05-18T01:50:48.219Z,16.90
2017-05-18T01:53:16.572Z,16.90
2017-05-18T01:55:45.576Z,16.90
2017-05-18T01:58:13.825Z,16.90
2017-05-18T02:00:43.203Z,16.90
2017-05-18T02:03:11.536Z,16.90
2017-05-18T02:05:39.785Z,16.90
2017-05-18T02:08:08.793Z,16.90
2017-05-18T02:10:37.899Z,16.90
2017-05-18T02:13:06.183Z,16.90
2017-05-18T02:15:34.435Z,16.90
2017-05-18T02:18:09.545Z,16.90
2017-05-18T02:20:37.860Z,16.90
2017-05-18T02:23:06.112Z,16.90
2017-05-18T02:25:34.345Z,16.90
2017-05-18T02:28:02.580Z,16.90
2017-05-18T02:30:30.847Z,16.90
2017-05-18T02:32:59.868Z,16.90
2017-05-18T02:35:28.113Z,16.90
2017-05-18T02:37:57.124Z,16.90
2017-05-18T02:40:25.355Z,16.90
2017-05-18T02:42:53.616Z,16.90
2017-05-18T02:45:21.876Z,16.90
2017-05-18T02:47:50.135Z,16.90
2017-05-18T02:50:18.396Z,16.90
2017-05-18T02:52:47.375Z,16.80
2017-05-18T02:55:16.388Z,16.80
2017-05-18T02:57:44.628Z,16.90
2017-05-18T03:00:13.081Z,16.80
2017-05-18T03:02:41.437Z,16.90
2017-05-18T03:05:10.042Z,16.90
2017-05-18T03:07:38.392Z,16.80
2017-05-18T03:10:06.668Z,16.90
2017-05-18T03:12:34.935Z,16.80
2017-05-18T03:15:03.923Z,16.90
2017-05-18T03:17:32.917Z,16.80
2017-05-18T03:20:01.907Z,16.90
2017-05-18T03:22:30.190Z,16.80
2017-05-18T03:24:59.183Z,16.80
2017-05-18T03:27:38.242Z,16.80
2017-05-18T03:30:06.494Z,16.80
2017-05-18T03:32:34.787Z,16.80
2017-05-18T03:35:03.272Z,16.80
2017-05-18T03:37:31.767Z,16.80
2017-05-18T03:40:00.009Z,16.80
2017-05-18T03:42:28.272Z,16.80
2017-05-18T03:44:57.272Z,16.80
2017-05-18T03:47:25.575Z,16.80
2017-05-18T03:49:53.937Z,16.90
2017-05-18T03:52:22.225Z,16.80
2017-05-18T03:54:50.576Z,16.80
2017-05-18T03:57:19.585Z,16.80
2017-05-18T03:59:47.838Z,16.90
2017-05-18T04:02:16.844Z,16.80
2017-05-18T04:04:45.847Z,16.80
2017-05-18T04:07:14.080Z,16.90
2017-05-18T04:09:42.347Z,16.80
2017-05-18T04:12:10.693Z,16.80
2017-05-18T04:14:39.032Z,16.90
2017-05-18T04:17:08.000Z,16.90
2017-05-18T04:19:36.309Z,16.90
2017-05-18T04:22:05.311Z,16.80
2017-05-18T04:24:33.591Z,16.90
2017-05-18T04:27:01.858Z,16.90
2017-05-18T04:29:30.825Z,16.80
2017-05-18T04:31:59.092Z,16.90
2017-05-18T04:34:27.407Z,16.80
2017-05-18T04:36:56.377Z,16.80
2017-05-18T04:39:24.615Z,16.90
2017-05-18T04:41:52.962Z,16.80
2017-05-18T04:44:21.197Z,16.90
2017-05-18T04:46:49.476Z,16.90
2017-05-18T04:49:17.692Z,16.90
2017-05-18T04:51:45.963Z,16.80
2017-05-18T04:54:20.464Z,16.80
2017-05-18T04:56:49.572Z,16.80
2017-05-18T04:59:18.571Z,16.80
2017-05-18T05:01:46.840Z,16.80
2017-05-18T05:04:15.825Z,16.80
2017-05-18T05:06:44.828Z,16.90
2017-05-18T05:09:13.101Z,16.90
2017-05-18T05:11:42.089Z,16.80
2017-05-18T05:14:11.093Z,16.80
2017-05-18T05:16:40.083Z,16.80
2017-05-18T05:19:09.092Z,16.80
2017-05-18T05:21:37.346Z,16.90
2017-05-18T05:24:06.321Z,16.80
2017-05-18T05:26:34.540Z,16.90
2017-05-18T05:29:02.795Z,16.90
2017-05-18T05:31:31.813Z,16.90
2017-05-18T05:34:00.069Z,16.90
2017-05-18T05:36:29.042Z,17.00
2017-05-18T05:38:57.274Z,17.00
2017-05-18T05:41:25.630Z,17.00
2017-05-18T05:43:54.290Z,17.00
2017-05-18T05:46:23.295Z,17.00
2017-05-18T05:48:51.524Z,17.00
2017-05-18T05:51:19.841Z,17.00
2017-05-18T05:53:48.851Z,17.00
2017-05-18T05:56:17.224Z,17.00
2017-05-18T05:58:45.573Z,17.00
2017-05-18T06:01:14.583Z,17.00
2017-05-18T06:03:43.575Z,17.00
2017-05-18T06:06:12.592Z,17.00
2017-05-18T06:08:40.846Z,17.00
2017-05-18T06:11:09.843Z,17.00
2017-05-18T06:13:38.837Z,17.00
2017-05-18T06:16:07.816Z,17.00
2017-05-18T06:18:36.812Z,17.10
2017-05-18T06:21:05.810Z,17.10
2017-05-18T06:23:34.794Z,17.10
2017-05-18T06:26:03.772Z,17.10
2017-05-18T06:28:32.804Z,17.10
2017-05-18T06:31:01.084Z,17.10
2017-05-18T06:33:29.320Z,17.10
2017-05-18T06:35:57.582Z,17.10
2017-05-18T06:38:25.993Z,17.20
2017-05-18T06:40:54.172Z,17.20
2017-05-18T06:43:23.172Z,17.10
2017-05-18T06:45:51.424Z,17.20
2017-05-18T06:48:19.641Z,17.20
2017-05-18T06:50:47.889Z,17.20
2017-05-18T06:53:16.863Z,17.20
2017-05-18T06:55:45.206Z,17.20
2017-05-18T06:58:13.448Z,17.20
2017-05-18T07:00:43.244Z,17.10
2017-05-18T07:03:13.576Z,17.20
2017-05-18T07:05:42.682Z,17.10
2017-05-18T07:08:10.925Z,17.20
2017-05-18T07:10:39.265Z,17.20
2017-05-18T07:13:07.524Z,17.20
2017-05-18T07:15:35.781Z,17.20
2017-05-18T07:18:04.877Z,17.10
2017-05-18T07:20:33.860Z,17.10
2017-05-18T07:23:02.965Z,17.10
2017-05-18T07:25:31.971Z,17.10
2017-05-18T07:28:00.224Z,17.20
2017-05-18T07:30:29.196Z,17.20
2017-05-18T07:32:57.522Z,17.20
2017-05-18T07:35:25.771Z,17.20
2017-05-18T07:37:54.867Z,17.20
2017-05-18T07:40:23.852Z,17.20
2017-05-18T07:42:52.877Z,17.20
2017-05-18T07:45:21.119Z,17.20
2017-05-18T07:47:49.368Z,17.20
2017-05-18T07:50:17.591Z,17.20
2017-05-18T07:52:46.572Z,17.20
2017-05-18T07:55:15.578Z,17.20
2017-05-18T07:57:43.872Z,17.20
2017-05-18T08:00:12.107Z,17.20
2017-05-18T08:02:41.132Z,17.20
2017-05-18T08:05:09.948Z,17.20
2017-05-18T08:07:39.013Z,17.20
2017-05-18T08:10:07.294Z,17.20
2017-05-18T08:12:35.579Z,17.20
2017-05-18T08:15:03.933Z,17.20
2017-05-18T08:17:32.924Z,17.20
2017-05-18T08:20:01.917Z,17.20
2017-05-18T08:22:30.907Z,17.20
2017-05-18T08:24:59.919Z,17.20
2017-05-18T08:27:28.202Z,17.20
2017-05-18T08:29:56.472Z,17.20
2017-05-18T08:32:24.841Z,17.20
2017-05-18T08:34:53.131Z,17.20
2017-05-18T08:37:21.368Z,17.20
2017-05-18T08:39:49.623Z,17.20
2017-05-18T08:42:17.883Z,17.20
2017-05-18T08:44:46.253Z,17.30
2017-05-18T08:47:14.537Z,17.20
2017-05-18T08:49:42.764Z,17.30
2017-05-18T08:52:11.776Z,17.20
2017-05-18T08:54:39.998Z,17.30
2017-05-18T08:57:08.241Z,17.30
2017-05-18T08:59:36.480Z,17.30
2017-05-18T09:02:05.484Z,17.20
2017-05-18T09:04:34.444Z,17.30
2017-05-18T09:07:02.748Z,17.30
2017-05-18T09:09:31.736Z,17.30
2017-05-18T09:12:00.736Z,17.30
2017-05-18T09:14:29.721Z,17.30
2017-05-18T09:16:58.712Z,17.30
2017-05-18T09:19:27.718Z,17.30
2017-05-18T09:21:56.737Z,17.30
2017-05-18T09:24:25.107Z,17.30
2017-05-18T09:26:53.397Z,17.20
2017-05-18T09:29:21.653Z,17.30
2017-05-18T09:31:49.925Z,17.30
2017-05-18T09:34:18.236Z,17.30
2017-05-18T09:36:46.572Z,17.30
2017-05-18T09:39:15.557Z,17.20
2017-05-18T09:41:44.576Z,17.20
2017-05-18T09:44:12.822Z,17.30
2017-05-18T09:46:41.122Z,17.30
2017-05-18T09:49:09.392Z,17.30
2017-05-18T09:51:37.657Z,17.30
2017-05-18T09:54:06.652Z,17.30
2017-05-18T09:56:35.653Z,17.30
2017-05-18T09:59:03.914Z,17.30
2017-05-18T10:01:32.920Z,17.30
2017-05-18T10:04:01.898Z,17.30
2017-05-18T10:06:30.200Z,17.40
2017-05-18T10:08:58.473Z,17.40
2017-05-18T10:11:27.443Z,17.40
2017-05-18T10:13:55.754Z,17.40
2017-05-18T10:16:23.990Z,17.40
2017-05-18T10:18:52.247Z,17.40
2017-05-18T10:21:20.491Z,17.40
2017-05-18T10:23:48.741Z,17.50
2017-05-18T10:26:17.735Z,17.50
2017-05-18T10:28:46.741Z,17.50
2017-05-18T10:31:15.025Z,17.50
2017-05-18T10:33:43.284Z,17.50
2017-05-18T10:36:11.602Z,17.50
2017-05-18T10:38:39.936Z,17.50
2017-05-18T10:41:08.905Z,17.50
2017-05-18T10:43:37.145Z,17.50
2017-05-18T10:46:05.400Z,17.50
2017-05-18T10:48:33.659Z,17.60
2017-05-18T10:51:01.962Z,17.60
2017-05-18T10:53:30.320Z,17.50
2017-05-18T10:55:58.572Z,17.60
2017-05-18T10:58:27.540Z,17.60
2017-05-18T11:00:55.869Z,17.60
2017-05-18T11:03:24.135Z,17.60
2017-05-18T11:05:52.504Z,17.60
2017-05-18T11:08:21.500Z,17.60
2017-05-18T11:10:50.489Z,17.50
2017-05-18T11:13:19.488Z,17.50
2017-05-18T11:15:48.490Z,17.60
2017-05-18T11:18:16.714Z,17.60
2017-05-18T11:20:44.952Z,17.60
2017-05-18T11:23:13.227Z,17.60
2017-05-18T11:25:41.492Z,17.60
2017-05-18T11:28:09.731Z,17.60
2017-05-18T11:30:37.967Z,17.60
2017-05-18T11:33:06.216Z,17.60
2017-05-18T11:35:34.478Z,17.60
2017-05-18T11:38:03.497Z,17.60
2017-05-18T11:40:31.767Z,17.60
2017-05-18T11:43:00.037Z,17.60
2017-05-18T11:45:29.133Z,17.60
2017-05-18T11:47:58.121Z,17.60
2017-05-18T11:50:27.166Z,17.60
2017-05-18T11:52:55.419Z,17.60
2017-05-18T11:55:23.709Z,17.60
2017-05-18T11:57:52.044Z,17.70
2017-05-18T12:00:21.020Z,17.70
2017-05-18T12:02:49.311Z,17.70
2017-05-18T12:05:18.765Z,17.70
2017-05-18T12:07:47.104Z,17.70
2017-05-18T12:10:15.379Z,17.70
2017-05-18T12:12:43.660Z,17.70
2017-05-18T12:15:11.919Z,17.70
2017-05-18T12:17:40.931Z,17.70
2017-05-18T12:20:09.214Z,17.70
2017-05-18T12:22:37.468Z,17.70
2017-05-18T12:25:06.569Z,17.70
2017-05-18T12:27:35.544Z,17.60
2017-05-18T12:30:03.837Z,17.70
2017-05-18T12:32:32.932Z,17.70
2017-05-18T12:35:01.948Z,17.70
2017-05-18T12:37:30.193Z,17.70
2017-05-18T12:39:59.193Z,17.70
2017-05-18T12:42:28.197Z,17.70
2017-05-18T12:44:56.464Z,17.70
2017-05-18T12:47:25.452Z,17.70
2017-05-18T12:49:54.450Z,17.70
2017-05-18T12:52:23.425Z,17.70
2017-05-18T12:54:51.727Z,17.70
2017-05-18T12:57:20.099Z,17.70
2017-05-18T12:59:49.079Z,17.70
2017-05-18T13:02:18.103Z,17.80
2017-05-18T13:04:46.360Z,17.80
2017-05-18T13:07:15.380Z,17.80
2017-05-18T13:09:43.663Z,17.80
2017-05-18T13:12:11.919Z,17.80
2017-05-18T13:14:40.153Z,17.70
2017-05-18T13:17:08.407Z,17.70
2017-05-18T13:19:36.648Z,17.70
2017-05-18T13:22:04.905Z,17.70
2017-05-18T13:24:33.924Z,17.70
2017-05-18T13:27:02.161Z,17.70
2017-05-18T13:29:30.463Z,17.80
2017-05-18T13:31:58.733Z,17.80
2017-05-18T13:34:27.731Z,17.70
2017-05-18T13:36:55.992Z,17.70
2017-05-18T13:39:24.990Z,17.80
2017-05-18T13:41:53.990Z,17.80
2017-05-18T13:44:22.277Z,17.80
2017-05-18T13:46:50.543Z,17.80
2017-05-18T13:49:18.779Z,17.80
2017-05-18T13:51:47.088Z,17.80
2017-05-18T13:54:16.082Z,17.80
2017-05-18T13:56:45.142Z,17.80
2017-05-18T13:59:13.460Z,17.80
2017-05-18T14:01:42.440Z,17.80
2017-05-18T14:04:11.459Z,17.80
2017-05-18T14:06:39.692Z,17.80
2017-05-18T14:09:11.319Z,17.80
2017-05-18T14:11:39.567Z,17.80
2017-05-18T14:14:07.801Z,17.80
2017-05-18T14:16:36.088Z,17.80
2017-05-18T14:19:05.107Z,17.80
2017-05-18T14:21:33.352Z,17.80
2017-05-18T14:24:01.685Z,17.80
2017-05-18T14:26:30.040Z,17.80
2017-05-18T14:28:58.312Z,17.80
2017-05-18T14:31:26.589Z,17.70
2017-05-18T14:33:54.987Z,17.70
2017-05-18T14:36:23.236Z,17.80
2017-05-18T14:38:52.235Z,17.70
2017-05-18T14:41:20.488Z,17.70
2017-05-18T14:43:48.783Z,17.70
2017-05-18T14:46:17.763Z,17.70
2017-05-18T14:48:46.732Z,17.70
2017-05-18T14:51:14.981Z,17.70
2017-05-18T14:53:43.247Z,17.70
2017-05-18T14:56:11.507Z,18.00
2017-05-18T14:58:39.769Z,18.10
2017-05-18T15:01:08.787Z,18.10
2017-05-18T15:03:37.025Z,18.00
2017-05-18T15:06:06.005Z,17.90
2017-05-18T15:08:34.245Z,17.90
2017-05-18T15:11:02.491Z,17.80
2017-05-18T15:13:30.752Z,17.80
2017-05-18T15:15:59.744Z,17.80
2017-05-18T15:18:28.756Z,17.70
2017-05-18T15:20:56.994Z,17.70
2017-05-18T15:23:26.015Z,17.70
2017-05-18T15:25:55.013Z,17.70
2017-05-18T15:28:23.283Z,17.70
2017-05-18T15:30:51.580Z,17.70
2017-05-18T15:36:15.149Z,17.70
2017-05-18T15:38:44.152Z,17.70
2017-05-18T15:41:12.424Z,17.70
2017-05-18T15:43:40.702Z,17.70
2017-05-18T15:46:08.935Z,17.70
2017-05-18T15:48:37.244Z,17.60
2017-05-18T15:51:06.244Z,17.60
2017-05-18T15:53:34.484Z,17.70
2017-05-18T15:56:02.790Z,17.60
2017-05-18T15:58:31.779Z,17.60
2017-05-18T16:01:00.752Z,17.60
2017-05-18T16:03:29.064Z,17.70
2017-05-18T16:05:57.326Z,17.60
2017-05-18T16:08:26.313Z,17.70
2017-05-18T16:10:55.419Z,17.70
2017-05-18T16:13:24.390Z,17.70
2017-05-18T16:15:52.703Z,17.70
2017-05-18T16:18:26.819Z,17.70
2017-05-18T16:20:55.087Z,17.70
2017-05-18T16:23:23.350Z,17.70
2017-05-18T16:25:52.361Z,17.70
2017-05-18T16:31:15.426Z,17.70
2017-05-18T16:33:43.815Z,17.70
2017-05-18T16:36:12.064Z,17.70
2017-05-18T16:38:41.081Z,17.70
2017-05-18T16:41:09.390Z,17.70
2017-05-18T16:43:37.767Z,17.70
2017-05-18T16:46:06.006Z,17.60
2017-05-18T16:48:34.252Z,17.60
2017-05-18T16:51:02.548Z,17.60
2017-05-18T16:53:31.568Z,17.60
2017-05-18T16:55:59.834Z,17.60
2017-05-18T16:58:28.103Z,17.60
2017-05-18T17:00:56.520Z,17.60
2017-05-18T17:03:24.861Z,17.60
2017-05-18T17:05:53.150Z,17.60
2017-05-18T17:08:21.410Z,17.60
2017-05-18T17:10:49.687Z,17.60
2017-05-18T17:13:19.012Z,17.60
2017-05-18T17:15:47.297Z,17.60
2017-05-18T17:18:15.671Z,17.60
2017-05-18T17:20:43.940Z,17.60
2017-05-18T17:23:12.177Z,17.60
2017-05-18T17:25:41.231Z,17.60
2017-05-18T17:28:09.599Z,17.60
2017-05-18T17:30:37.857Z,17.70
2017-05-18T17:33:06.093Z,17.70
2017-05-18T17:35:35.126Z,17.70
2017-05-18T17:38:03.343Z,17.70
2017-05-18T17:40:31.634Z,17.70
2017-05-18T17:42:59.963Z,17.70
2017-05-18T17:45:28.215Z,17.70
2017-05-18T17:47:57.210Z,17.70
2017-05-18T17:50:26.213Z,17.60
2017-05-18T17:52:54.488Z,17.70
2017-05-18T17:55:22.754Z,17.70
2017-05-18T17:57:51.768Z,17.70
2017-05-18T18:00:20.035Z,17.70
2017-05-18T18:02:48.269Z,17.70
2017-05-18T18:05:16.945Z,17.70
2017-05-18T18:07:45.283Z,17.70
2017-05-18T18:10:13.563Z,17.70
2017-05-18T18:12:41.815Z,17.70
2017-05-18T18:15:10.820Z,17.60
2017-05-18T18:17:39.093Z,17.60
2017-05-18T18:20:07.369Z,17.60
2017-05-18T18:22:36.685Z,17.70
2017-05-18T18:25:04.949Z,17.60
2017-05-18T18:27:33.311Z,17.60
2017-05-18T18:30:02.323Z,17.60
2017-05-18T18:32:30.579Z,17.60
2017-05-18T18:34:59.677Z,17.60
2017-05-18T18:37:28.681Z,17.60
2017-05-18T18:39:56.931Z,17.60
2017-05-18T18:42:25.217Z,17.60
2017-05-18T18:44:54.215Z,17.60
2017-05-18T18:47:23.199Z,17.60
2017-05-18T18:49:52.216Z,17.60
2017-05-18T18:52:20.488Z,17.60
2017-05-18T18:54:49.467Z,17.60
2017-05-18T18:57:18.455Z,17.60
2017-05-18T18:59:46.719Z,17.60
2017-05-18T19:02:15.018Z,17.60
2017-05-18T19:04:44.032Z,17.50
2017-05-18T19:07:12.288Z,17.60
2017-05-18T19:12:35.042Z,17.50
2017-05-18T19:15:03.272Z,17.50
2017-05-18T19:17:31.608Z,17.50
2017-05-18T19:20:00.594Z,17.50
2017-05-18T19:22:29.595Z,17.50
2017-05-18T19:24:58.597Z,17.50
2017-05-18T19:27:26.903Z,17.50
2017-05-18T19:29:55.304Z,17.50
2017-05-18T19:32:23.636Z,17.50
2017-05-18T19:34:51.913Z,17.50
2017-05-18T19:37:20.167Z,17.50
2017-05-18T19:39:49.193Z,17.50
2017-05-18T19:42:17.460Z,17.50
2017-05-18T19:44:45.689Z,17.50
2017-05-18T19:47:13.971Z,17.50
2017-05-18T19:49:42.285Z,17.50
2017-05-18T19:52:10.550Z,17.50
2017-05-18T19:54:39.548Z,17.50
2017-05-18T19:57:07.786Z,17.50
2017-05-18T19:59:37.776Z,17.50
2017-05-18T20:02:06.050Z,17.50
2017-05-18T20:04:34.390Z,17.50
2017-05-18T20:07:15.984Z,17.50
2017-05-18T20:09:45.063Z,17.40
2017-05-18T20:12:14.084Z,17.50
2017-05-18T20:14:42.372Z,17.50
2017-05-18T20:17:10.612Z,17.50
2017-05-18T20:19:39.768Z,17.40
2017-05-18T20:22:08.014Z,17.50
2017-05-18T20:24:36.241Z,17.40
2017-05-18T20:27:04.562Z,17.50
2017-05-18T20:29:32.792Z,17.50
2017-05-18T20:32:01.103Z,17.40
2017-05-18T20:34:29.380Z,17.40
2017-05-18T20:36:58.387Z,17.40
2017-05-18T20:39:26.794Z,17.40
2017-05-18T20:41:55.052Z,17.40
2017-05-18T20:44:23.296Z,17.40
2017-05-18T20:46:52.284Z,17.40
2017-05-18T20:49:21.259Z,17.40
2017-05-18T20:51:49.591Z,17.40
2017-05-18T20:54:17.836Z,17.40
2017-05-18T20:56:46.124Z,17.40
2017-05-18T20:59:14.380Z,17.40
2017-05-18T21:01:43.386Z,17.40
2017-05-18T21:04:12.413Z,17.40
2017-05-18T21:06:40.635Z,17.40
2017-05-18T21:09:08.875Z,17.40
2017-05-18T21:11:37.200Z,17.40
2017-05-18T21:14:06.322Z,17.40
2017-05-18T21:16:34.678Z,17.40
2017-05-18T21:19:03.670Z,17.40
2017-05-18T21:21:32.780Z,17.40
2017-05-18T21:24:01.045Z,17.40
2017-05-18T21:26:30.036Z,17.40
2017-05-18T21:28:59.132Z,17.40
2017-05-18T21:31:27.377Z,17.40
2017-05-18T21:33:55.649Z,17.40
2017-05-18T21:36:23.960Z,17.40
2017-05-18T21:38:52.935Z,17.40
2017-05-18T21:41:21.173Z,17.40
2017-05-18T21:43:49.532Z,17.40
2017-05-18T21:46:17.903Z,17.40
2017-05-18T21:48:46.163Z,17.40
2017-05-18T21:51:15.155Z,17.40
2017-05-18T21:53:44.120Z,17.40
2017-05-18T21:56:12.420Z,17.40
2017-05-18T21:58:41.426Z,17.40
2017-05-18T22:01:10.413Z,17.40
2017-05-18T22:03:39.509Z,17.40
2017-05-18T22:06:08.496Z,17.40
2017-05-18T22:08:37.470Z,17.40
2017-05-18T22:11:05.786Z,17.30
2017-05-18T22:13:34.044Z,17.40
2017-05-18T22:16:03.050Z,17.30
2017-05-18T22:18:31.361Z,17.30
2017-05-18T22:20:59.583Z,17.40
2017-05-18T22:23:28.596Z,17.40
2017-05-18T22:25:56.857Z,17.30
2017-05-18T22:28:25.853Z,17.30
2017-05-18T22:30:54.823Z,17.40
2017-05-18T22:33:23.147Z,17.30
2017-05-18T22:35:51.419Z,17.30
2017-05-18T22:38:19.694Z,17.40
2017-05-18T22:40:47.952Z,17.40
2017-05-18T22:43:16.970Z,17.30
2017-05-18T22:45:45.219Z,17.40
2017-05-18T22:48:14.213Z,17.30
2017-05-18T22:50:44.113Z,17.30
2017-05-18T22:53:13.144Z,17.30
2017-05-18T22:55:41.399Z,17.40
2017-05-18T22:58:10.408Z,17.30
2017-05-18T23:00:38.653Z,17.30
2017-05-18T23:03:06.955Z,17.30
2017-05-18T23:05:35.179Z,17.30
2017-05-18T23:08:03.501Z,17.30
2017-05-18T23:10:32.496Z,17.30
2017-05-18T23:13:01.488Z,17.30
2017-05-18T23:15:30.496Z,17.30
2017-05-18T23:17:58.743Z,17.30
2017-05-18T23:20:27.768Z,17.30
2017-05-18T23:22:56.051Z,17.30
2017-05-18T23:25:24.300Z,17.30
2017-05-18T23:27:53.277Z,17.30
2017-05-18T23:30:22.289Z,17.30
2017-05-18T23:32:50.635Z,17.30
2017-05-18T23:35:18.924Z,17.30
2017-05-18T23:37:47.160Z,17.30
2017-05-18T23:40:15.522Z,17.30
2017-05-18T23:42:43.756Z,17.30
2017-05-18T23:45:12.747Z,17.30
2017-05-18T23:47:41.764Z,17.30
2017-05-18T23:50:10.026Z,17.30
2017-05-18T23:52:39.028Z,17.30
2017-05-18T23:55:07.407Z,17.30
2017-05-18T23:57:36.385Z,17.30
